createdAt,value
2022-08-08T00:00:52.193Z,5.60
2022-08-08T00:03:19.971Z,5.60
2022-08-08T00:06:07.038Z,5.57
2022-08-08T00:08:49.286Z,5.15
2022-08-08T00:11:46.217Z,5.03
2022-08-08T00:14:57.569Z,5.03
2022-08-08T00:18:02.201Z,5.05
2022-08-08T00:20:42.715Z,5.53
2022-08-08T00:23:42.329Z,5.45
2022-08-08T00:26:29.089Z,6.15
2022-08-08T00:29:10.585Z,6.40
2022-08-08T00:32:20.480Z,5.45
2022-08-08T00:35:20.553Z,5.63
2022-08-08T00:38:31.437Z,5.57
2022-08-08T00:42:09.093Z,5.63
2022-08-08T00:45:27.201Z,4.68
2022-08-08T00:48:42.928Z,4.30
2022-08-08T00:52:07.159Z,5.10
2022-08-08T00:55:55.512Z,4.78
2022-08-08T00:59:02.627Z,5.60
2022-08-08T01:01:52.260Z,4.97
2022-08-08T01:05:05.136Z,5.60
2022-08-08T01:08:28.532Z,4.90
2022-08-08T01:11:36.344Z,5.53
2022-08-08T01:14:57.514Z,4.88
2022-08-08T01:18:16.364Z,5.32
2022-08-08T01:21:35.144Z,5.03
2022-08-08T01:24:44.338Z,5.15
2022-08-08T01:28:05.332Z,5.10
2022-08-08T01:32:05.506Z,5.70
2022-08-08T01:34:47.261Z,4.40
2022-08-08T01:38:06.228Z,5.43
2022-08-08T01:40:58.233Z,4.30
2022-08-08T01:43:45.058Z,4.25
2022-08-08T01:46:40.506Z,4.80
2022-08-08T01:49:37.599Z,5.18
2022-08-08T01:53:14.886Z,5.15
2022-08-08T01:56:26.895Z,4.20
2022-08-08T01:58:46.941Z,4.07
2022-08-08T02:01:59.694Z,4.32
2022-08-08T02:04:42.989Z,4.60
2022-08-08T02:07:41.652Z,4.88
2022-08-08T02:10:44.983Z,4.43
2022-08-08T02:13:53.739Z,5.22
2022-08-08T02:16:46.974Z,4.75
2022-08-08T02:19:57.152Z,5.00
2022-08-08T02:22:52.457Z,4.63
2022-08-08T02:25:47.223Z,4.28
2022-08-08T02:28:36.346Z,4.43
2022-08-08T02:31:58.134Z,4.30
2022-08-08T02:35:07.817Z,4.60
2022-08-08T02:38:00.029Z,3.80
2022-08-08T02:40:45.216Z,3.90
2022-08-08T02:44:39.077Z,4.82
2022-08-08T02:47:02.749Z,4.30
2022-08-08T02:50:02.222Z,4.30
2022-08-08T02:52:52.539Z,4.43
2022-08-08T02:56:06.190Z,4.55
2022-08-08T03:02:42.355Z,4.85
2022-08-08T03:05:45.088Z,4.30
2022-08-08T03:08:56.779Z,3.97
2022-08-08T03:12:15.390Z,3.88
2022-08-08T03:15:59.074Z,4.10
2022-08-08T03:20:51.642Z,4.22
2022-08-08T03:23:56.253Z,4.35
2022-08-08T03:26:42.042Z,4.55
2022-08-08T03:29:38.080Z,3.92
2022-08-08T03:32:34.848Z,4.38
2022-08-08T03:35:12.052Z,3.30
2022-08-08T03:38:53.755Z,3.92
2022-08-08T03:40:52.195Z,4.00
2022-08-08T03:43:31.656Z,3.42
2022-08-08T03:46:13.077Z,4.28
2022-08-08T03:49:56.185Z,3.55
2022-08-08T03:51:54.413Z,3.83
2022-08-08T03:54:41.515Z,3.95
2022-08-08T03:58:32.323Z,3.75
2022-08-08T04:00:30.987Z,4.20
2022-08-08T04:03:12.193Z,3.80
2022-08-08T04:05:50.033Z,4.00
2022-08-08T04:08:32.964Z,4.40
2022-08-08T04:11:17.196Z,3.38
2022-08-08T04:14:03.309Z,3.70
2022-08-08T04:16:43.840Z,3.25
2022-08-08T04:19:25.401Z,3.88
2022-08-08T04:22:06.006Z,3.40
2022-08-08T04:24:48.717Z,3.53
2022-08-08T04:28:03.254Z,3.95
2022-08-08T04:30:20.921Z,3.90
2022-08-08T04:32:59.551Z,4.68
2022-08-08T04:35:39.871Z,4.80
2022-08-08T04:38:21.263Z,3.45
2022-08-08T04:40:56.199Z,4.32
2022-08-08T04:43:45.214Z,3.88
2022-08-08T04:49:06.336Z,3.08
2022-08-08T04:51:57.347Z,3.45
2022-08-08T04:54:39.182Z,3.67
2022-08-08T04:57:16.368Z,3.40
2022-08-08T04:59:50.450Z,3.70
2022-08-08T05:02:30.629Z,3.80
2022-08-08T05:05:06.306Z,4.00
2022-08-08T05:07:50.135Z,3.38
2022-08-08T05:10:28.365Z,3.80
2022-08-08T05:13:03.383Z,3.33
2022-08-08T05:16:54.216Z,3.70
2022-08-08T05:21:14.493Z,3.25
2022-08-08T05:23:59.201Z,4.15
2022-08-08T05:26:39.637Z,3.40
2022-08-08T05:29:17.989Z,3.10
2022-08-08T05:32:03.506Z,3.28
2022-08-08T05:34:47.652Z,3.45
2022-08-08T05:37:39.444Z,3.08
2022-08-08T05:40:27.944Z,3.58
2022-08-08T05:43:38.209Z,3.00
2022-08-08T05:46:10.391Z,3.30
2022-08-08T05:48:52.243Z,3.70
2022-08-08T05:51:49.111Z,3.25
2022-08-08T05:54:49.821Z,3.33
2022-08-08T05:58:04.615Z,3.05
2022-08-08T06:00:25.602Z,3.70
2022-08-08T06:03:17.243Z,3.53
2022-08-08T06:06:06.684Z,3.10
2022-08-08T06:08:54.731Z,3.10
2022-08-08T06:11:37.120Z,3.42
2022-08-08T06:14:21.514Z,3.97
2022-08-08T06:17:02.463Z,3.35
2022-08-08T06:20:01.741Z,3.65
2022-08-08T06:22:36.295Z,3.15
2022-08-08T06:25:18.341Z,3.42
2022-08-08T06:28:14.467Z,3.88
2022-08-08T06:30:57.809Z,3.30
2022-08-08T06:34:26.013Z,4.28
2022-08-08T06:36:58.945Z,3.58
2022-08-08T06:39:36.579Z,3.20
2022-08-08T06:42:37.027Z,3.50
2022-08-08T06:45:13.142Z,3.45
2022-08-08T06:47:58.181Z,3.78
2022-08-08T06:50:39.566Z,3.88
2022-08-08T06:53:20.626Z,3.85
2022-08-08T06:56:03.477Z,4.05
2022-08-08T06:58:43.551Z,2.67
2022-08-08T07:02:16.602Z,3.38
2022-08-08T07:04:36.407Z,3.40
2022-08-08T07:07:24.631Z,3.95
2022-08-08T07:10:04.067Z,3.60
2022-08-08T07:12:55.412Z,3.50
2022-08-08T07:16:04.879Z,3.30
2022-08-08T07:18:55.936Z,4.38
2022-08-08T07:21:44.436Z,4.35
2022-08-08T07:24:26.931Z,3.85
2022-08-08T07:27:09.334Z,4.35
2022-08-08T07:30:02.634Z,4.72
2022-08-08T07:32:50.100Z,4.68
2022-08-08T07:35:25.896Z,4.10
2022-08-08T07:38:09.637Z,4.45
2022-08-08T07:41:04.286Z,4.90
2022-08-08T07:43:42.537Z,4.78
2022-08-08T07:46:30.245Z,4.63
2022-08-08T07:49:13.708Z,4.20
2022-08-08T07:51:53.279Z,3.85
2022-08-08T07:54:35.903Z,3.85
2022-08-08T07:57:25.702Z,3.78
2022-08-08T08:00:15.841Z,3.83
2022-08-08T08:03:11.080Z,3.80
2022-08-08T08:05:53.377Z,5.82
2022-08-08T08:08:39.443Z,4.78
2022-08-08T08:11:34.119Z,4.20
2022-08-08T08:14:31.912Z,3.97
2022-08-08T08:17:08.576Z,4.78
2022-08-08T08:19:46.626Z,3.88
2022-08-08T08:22:31.659Z,3.93
2022-08-08T08:25:10.841Z,3.40
2022-08-08T08:27:47.853Z,4.07
2022-08-08T08:30:26.500Z,4.28
2022-08-08T08:33:01.413Z,4.22
2022-08-08T08:36:17.784Z,3.28
2022-08-08T08:38:33.087Z,3.05
2022-08-08T08:41:17.701Z,3.90
2022-08-08T08:44:13.473Z,2.35
2022-08-08T08:46:57.836Z,2.95
2022-08-08T08:49:34.813Z,3.47
2022-08-08T08:52:11.121Z,3.17
2022-08-08T08:54:49.059Z,3.83
2022-08-08T08:57:31.403Z,2.58
2022-08-08T09:00:15.553Z,2.60
2022-08-08T09:02:54.199Z,3.15
2022-08-08T09:05:53.745Z,2.70
2022-08-08T09:08:27.636Z,3.05
2022-08-08T09:11:05.473Z,2.63
2022-08-08T09:13:40.734Z,3.00
2022-08-08T09:16:15.306Z,1.88
2022-08-08T09:18:53.284Z,2.88
2022-08-08T09:21:57.641Z,2.45
2022-08-08T09:24:27.275Z,2.30
2022-08-08T09:27:14.733Z,2.85
2022-08-08T09:30:02.323Z,2.13
2022-08-08T09:32:40.362Z,2.33
2022-08-08T09:35:37.103Z,1.95
2022-08-08T09:38:17.714Z,2.22
2022-08-08T09:40:57.704Z,2.22
2022-08-08T09:44:06.413Z,2.17
2022-08-08T09:46:38.729Z,1.90
2022-08-08T09:49:41.365Z,2.10
2022-08-08T09:52:16.038Z,2.15
2022-08-08T09:55:03.863Z,2.17
2022-08-08T09:57:46.242Z,1.90
2022-08-08T10:00:56.605Z,2.20
2022-08-08T10:03:35.661Z,1.98
2022-08-08T10:06:17.736Z,1.98
2022-08-08T10:08:53.242Z,1.60
2022-08-08T10:12:28.147Z,2.10
2022-08-08T10:14:34.982Z,1.77
2022-08-08T10:17:57.218Z,1.67
2022-08-08T10:20:09.558Z,1.95
2022-08-08T10:23:01.288Z,1.77
2022-08-08T10:25:56.283Z,1.48
2022-08-08T10:28:32.599Z,1.58
2022-08-08T10:31:25.224Z,1.55
2022-08-08T10:34:21.193Z,1.60
2022-08-08T10:36:56.491Z,1.38
2022-08-08T10:39:53.635Z,1.38
2022-08-08T10:42:35.693Z,1.60
2022-08-08T10:45:15.974Z,1.50
2022-08-08T10:47:55.791Z,1.23
2022-08-08T10:50:35.635Z,1.40
2022-08-08T10:53:12.933Z,1.60
2022-08-08T10:55:47.676Z,1.60
2022-08-08T10:58:30.351Z,1.75
2022-08-08T11:01:10.931Z,1.27
2022-08-08T11:04:01.107Z,1.75
2022-08-08T11:06:41.737Z,1.40
2022-08-08T11:09:22.954Z,1.17
2022-08-08T11:12:06.092Z,1.42
2022-08-08T11:14:57.245Z,1.30
2022-08-08T11:17:59.589Z,1.50
2022-08-08T11:20:30.055Z,1.23
2022-08-08T11:23:08.506Z,1.30
2022-08-08T11:25:52.505Z,1.17
2022-08-08T11:28:29.784Z,1.33
2022-08-08T11:31:09.557Z,1.30
2022-08-08T11:34:01.334Z,1.48
2022-08-08T11:36:39.691Z,1.67
2022-08-08T11:39:19.937Z,1.15
2022-08-08T11:41:55.111Z,1.27
2022-08-08T11:44:33.975Z,1.13
2022-08-08T11:47:12.831Z,1.00
2022-08-08T11:49:53.698Z,1.00
2022-08-08T11:52:30.578Z,1.15
2022-08-08T11:55:18.483Z,1.65
2022-08-08T11:58:06.829Z,1.15
2022-08-08T12:00:49.511Z,1.10
2022-08-08T12:03:30.665Z,1.27
2022-08-08T12:06:14.378Z,1.00
2022-08-08T12:08:49.289Z,1.35
2022-08-08T12:11:28.547Z,0.82
2022-08-08T12:14:07.827Z,0.90
2022-08-08T12:16:53.377Z,1.20
2022-08-08T12:19:37.939Z,1.00
2022-08-08T12:22:22.070Z,1.08
2022-08-08T12:25:06.187Z,1.10
2022-08-08T12:27:45.363Z,0.98
2022-08-08T12:30:31.995Z,0.75
2022-08-08T12:33:07.920Z,1.10
2022-08-08T12:35:52.389Z,1.15
2022-08-08T12:38:30.578Z,1.10
2022-08-08T12:41:33.878Z,1.08
2022-08-08T12:44:14.435Z,1.08
2022-08-08T12:47:08.137Z,1.00
2022-08-08T12:49:55.078Z,0.90
2022-08-08T12:52:40.040Z,0.85
2022-08-08T12:55:35.618Z,0.80
2022-08-08T12:58:15.470Z,0.80
2022-08-08T13:00:52.030Z,1.00
2022-08-08T13:03:27.840Z,1.02
2022-08-08T13:06:13.903Z,0.80
2022-08-08T13:08:53.719Z,1.08
2022-08-08T13:12:19.805Z,0.90
2022-08-08T13:14:40.382Z,0.93
2022-08-08T13:18:08.523Z,0.93
2022-08-08T13:20:27.227Z,1.10
2022-08-08T13:23:30.595Z,0.80
2022-08-08T13:26:03.924Z,0.90
2022-08-08T13:28:49.018Z,0.80
2022-08-08T13:31:23.613Z,1.10
2022-08-08T13:33:59.986Z,0.80
2022-08-08T13:36:44.582Z,0.80
2022-08-08T13:39:19.639Z,0.93
2022-08-08T13:42:01.302Z,0.95
2022-08-08T13:44:35.819Z,0.80
2022-08-08T13:47:18.049Z,0.90
2022-08-08T13:50:37.849Z,0.90
2022-08-08T13:52:55.456Z,0.80
2022-08-08T13:55:36.356Z,0.80
2022-08-08T13:58:20.442Z,0.88
2022-08-08T14:00:54.738Z,0.95
2022-08-08T14:03:53.880Z,0.80
2022-08-08T14:06:33.052Z,0.75
2022-08-08T14:09:24.487Z,1.05
2022-08-08T14:12:06.897Z,0.60
2022-08-08T14:14:43.358Z,1.00
2022-08-08T14:17:22.421Z,0.77
2022-08-08T14:20:56.237Z,0.80
2022-08-08T14:23:21.568Z,0.80
2022-08-08T14:26:11.142Z,0.80
2022-08-08T14:28:53.545Z,0.80
2022-08-08T14:32:06.332Z,0.93
2022-08-08T14:34:27.706Z,0.98
2022-08-08T14:37:08.225Z,1.45
2022-08-08T14:39:53.734Z,1.15
2022-08-08T14:42:36.127Z,1.25
2022-08-08T14:45:11.854Z,0.95
2022-08-08T14:47:51.306Z,1.23
2022-08-08T14:50:37.969Z,1.30
2022-08-08T14:53:15.377Z,1.58
2022-08-08T14:56:02.196Z,1.25
2022-08-08T14:58:38.868Z,2.28
2022-08-08T15:01:23.798Z,1.48
2022-08-08T15:04:09.001Z,2.50
2022-08-08T15:06:44.492Z,1.77
2022-08-08T15:09:19.701Z,2.33
2022-08-08T15:11:57.978Z,2.70
2022-08-08T15:14:32.934Z,1.75
2022-08-08T15:17:08.493Z,2.15
2022-08-08T15:19:42.547Z,2.00
2022-08-08T15:22:17.901Z,3.03
2022-08-08T15:24:57.429Z,2.33
2022-08-08T15:28:04.885Z,2.78
2022-08-08T15:30:27.767Z,1.85
2022-08-08T15:33:01.679Z,2.15
2022-08-08T15:35:39.124Z,2.63
2022-08-08T15:38:15.360Z,3.05
2022-08-08T15:40:49.544Z,2.72
2022-08-08T15:43:35.048Z,2.60
2022-08-08T15:46:10.636Z,2.40
2022-08-08T15:48:44.737Z,2.50
2022-08-08T15:51:19.524Z,2.58
2022-08-08T15:53:53.940Z,2.15
2022-08-08T15:56:29.603Z,2.88
2022-08-08T15:59:05.793Z,2.30
2022-08-08T16:01:40.973Z,2.65
2022-08-08T16:04:33.655Z,2.47
2022-08-08T16:07:09.230Z,2.35
2022-08-08T16:13:09.815Z,2.42
2022-08-08T16:13:11.186Z,2.40
2022-08-08T16:15:33.926Z,2.97
2022-08-08T16:18:27.872Z,2.65
2022-08-08T16:21:01.806Z,2.17
2022-08-08T16:23:37.702Z,2.10
2022-08-08T16:26:13.227Z,2.30
2022-08-08T16:28:53.279Z,2.22
2022-08-08T16:31:29.564Z,2.20
2022-08-08T16:34:03.571Z,2.00
2022-08-08T16:36:38.051Z,3.00
2022-08-08T16:39:28.203Z,2.88
2022-08-08T16:42:06.817Z,2.20
2022-08-08T16:44:54.453Z,2.75
2022-08-08T16:47:41.739Z,2.67
2022-08-08T16:50:20.146Z,2.58
2022-08-08T16:55:06.465Z,3.15
2022-08-08T16:55:56.762Z,2.58
2022-08-08T16:58:34.935Z,2.47
2022-08-08T17:01:15.434Z,1.75
2022-08-08T17:03:59.287Z,2.38
2022-08-08T17:06:43.277Z,2.20
2022-08-08T17:09:19.704Z,2.70
2022-08-08T17:11:59.443Z,2.25
2022-08-08T17:14:37.119Z,1.75
2022-08-08T17:17:41.665Z,2.17
2022-08-08T17:20:09.520Z,2.63
2022-08-08T17:23:16.401Z,3.10
2022-08-08T17:25:52.614Z,2.42
2022-08-08T17:28:34.261Z,2.58
2022-08-08T17:31:44.707Z,3.40
2022-08-08T17:34:36.608Z,2.17
2022-08-08T17:37:02.965Z,2.13
2022-08-08T17:40:03.019Z,2.28
2022-08-08T17:42:32.061Z,1.90
2022-08-08T17:45:06.820Z,2.30
2022-08-08T17:47:50.748Z,1.92
2022-08-08T17:50:25.912Z,1.90
2022-08-08T17:53:01.372Z,2.40
2022-08-08T17:56:06.538Z,2.13
2022-08-08T18:01:10.238Z,2.13
2022-08-08T18:03:45.314Z,1.95
2022-08-08T18:06:30.679Z,2.30
2022-08-08T18:09:06.948Z,2.30
2022-08-08T18:11:43.073Z,2.58
2022-08-08T18:14:21.603Z,2.15
2022-08-08T18:16:57.391Z,2.15
2022-08-08T18:19:45.630Z,1.95
2022-08-08T18:22:32.758Z,2.20
2022-08-08T18:25:17.307Z,1.80
2022-08-08T18:27:53.036Z,2.25
2022-08-08T18:30:27.006Z,1.77
2022-08-08T18:33:00.995Z,2.10
2022-08-08T18:35:41.851Z,2.40
2022-08-08T18:38:29.540Z,2.22
2022-08-08T18:41:05.295Z,1.98
2022-08-08T18:43:42.937Z,2.30
2022-08-08T18:46:57.337Z,2.20
2022-08-08T18:49:11.545Z,2.13
2022-08-08T18:51:52.639Z,2.05
2022-08-08T18:54:30.018Z,2.38
2022-08-08T18:57:09.025Z,2.38
2022-08-08T18:59:45.113Z,1.88
2022-08-08T19:02:27.717Z,2.20
2022-08-08T19:05:03.295Z,2.17
2022-08-08T19:07:39.457Z,2.72
2022-08-08T19:10:26.606Z,2.05
2022-08-08T19:13:02.213Z,2.00
2022-08-08T19:15:36.132Z,2.10
2022-08-08T19:18:33.471Z,2.20
2022-08-08T19:21:29.148Z,2.20
2022-08-08T19:26:39.949Z,2.15
2022-08-08T19:29:26.445Z,2.22
2022-08-08T19:32:00.411Z,2.28
2022-08-08T19:34:41.322Z,2.13
2022-08-08T19:37:16.879Z,2.13
2022-08-08T19:39:51.202Z,2.20
2022-08-08T19:42:25.218Z,2.53
2022-08-08T19:45:07.347Z,2.47
2022-08-08T19:47:41.587Z,2.28
2022-08-08T19:50:15.600Z,2.60
2022-08-08T19:52:54.454Z,2.65
2022-08-08T19:55:33.872Z,2.08
2022-08-08T19:58:08.259Z,2.10
2022-08-08T20:00:45.592Z,2.55
2022-08-08T20:04:00.273Z,2.22
2022-08-08T20:06:16.747Z,2.08
2022-08-08T20:08:51.345Z,2.35
2022-08-08T20:11:25.674Z,2.25
2022-08-08T20:14:34.754Z,2.33
2022-08-08T20:16:55.467Z,2.25
2022-08-08T20:19:33.542Z,2.05
2022-08-08T20:22:13.474Z,2.00
2022-08-08T20:25:00.700Z,1.88
2022-08-08T20:27:49.172Z,2.63
2022-08-08T20:30:52.444Z,1.92
2022-08-08T20:35:57.849Z,2.05
2022-08-08T20:38:33.925Z,2.13
2022-08-08T20:41:17.397Z,2.40
2022-08-08T20:43:53.350Z,2.20
2022-08-08T20:46:27.351Z,2.63
2022-08-08T20:49:04.933Z,2.50
2022-08-08T20:51:38.926Z,2.22
2022-08-08T20:54:14.308Z,2.30
2022-08-08T20:57:04.434Z,2.72
2022-08-08T20:59:50.910Z,2.53
2022-08-08T21:02:25.904Z,2.40
2022-08-08T21:05:01.937Z,3.22
2022-08-08T21:08:33.806Z,2.92
2022-08-08T21:10:31.850Z,3.10
2022-08-08T21:13:08.731Z,2.55
2022-08-08T21:16:03.884Z,2.85
2022-08-08T21:18:37.296Z,2.55
2022-08-08T21:21:20.465Z,2.70
2022-08-08T21:24:26.883Z,2.80
2022-08-08T21:27:04.805Z,2.90
2022-08-08T21:30:03.699Z,2.60
2022-08-08T21:32:35.717Z,2.90
2022-08-08T21:36:14.147Z,2.65
2022-08-08T21:38:15.951Z,2.97
2022-08-08T21:40:55.449Z,2.42
2022-08-08T21:43:34.069Z,2.47
2022-08-08T21:48:08.232Z,2.88
2022-08-08T21:49:04.732Z,2.90
2022-08-08T21:54:17.781Z,2.83
2022-08-08T21:55:02.068Z,3.35
2022-08-08T21:57:42.115Z,3.22
2022-08-08T22:03:00.413Z,3.22
2022-08-08T22:05:37.747Z,3.17
2022-08-08T22:08:15.937Z,3.20
2022-08-08T22:10:59.560Z,3.63
2022-08-08T22:13:47.790Z,3.28
2022-08-08T22:16:26.919Z,3.13
2022-08-08T22:19:00.984Z,3.17
2022-08-08T22:21:43.287Z,3.00
2022-08-08T22:24:28.474Z,2.95
2022-08-08T22:27:04.763Z,3.83
2022-08-08T22:30:02.376Z,3.83
2022-08-08T22:32:35.295Z,3.47
2022-08-08T22:35:13.198Z,3.30
2022-08-08T22:37:54.390Z,3.42
2022-08-08T22:40:31.902Z,3.58
2022-08-08T22:43:07.714Z,3.50
2022-08-08T22:45:43.125Z,3.33
2022-08-08T22:48:21.673Z,4.35
2022-08-08T22:50:56.055Z,3.35
2022-08-08T22:54:32.026Z,3.53
2022-08-08T22:56:24.150Z,3.28
2022-08-08T22:59:03.978Z,3.47
2022-08-08T23:02:03.686Z,3.50
2022-08-08T23:04:33.563Z,3.28
2022-08-08T23:07:08.685Z,3.50
2022-08-08T23:09:58.892Z,3.28
2022-08-08T23:12:40.301Z,3.30
2022-08-08T23:16:39.579Z,3.28
2022-08-08T23:18:13.241Z,3.97
2022-08-08T23:20:54.605Z,3.60
2022-08-08T23:23:29.112Z,3.40
2022-08-08T23:26:05.456Z,3.80
2022-08-08T23:28:45.554Z,3.58
2022-08-08T23:31:20.953Z,3.30
2022-08-08T23:34:16.610Z,3.13
2022-08-08T23:36:52.595Z,3.92
2022-08-08T23:39:31.810Z,2.72
2022-08-08T23:42:08.951Z,3.55
2022-08-08T23:44:43.017Z,3.13
2022-08-08T23:49:03.471Z,3.30
2022-08-08T23:50:30.847Z,3.58
2022-08-08T23:53:05.567Z,3.38
2022-08-08T23:55:42.067Z,3.20
2022-08-08T23:58:32.108Z,3.47
